Time;durP1;ratioP1;P1;durP2;ratioP2;P2;SDS_P1;SDS_P2;PMS_P1;PMS_P2;Temp;Humidity;BMP_temperature;BMP_pressure;BME280_temperature;BME280_humidity;BME280_pressure;Samples;Min_cycle;Max_cycle;Signal;HPM_P1;HPM_P2
2023/08/03 00:01:52;;;;;;;1.85;0.30;;;16.50;99.90;;;;;;5034270;28;20033;-75
2023/08/03 00:04:17;;;;;;;2.20;0.00;;;16.50;99.90;;;;;;5034325;28;20434;-75
2023/08/03 00:06:44;;;;;;;9.93;0.45;;;16.50;99.90;;;;;;5034298;28;20021;-75
2023/08/03 00:09:10;;;;;;;5.30;0.35;;;16.50;99.90;;;;;;5035374;28;20056;-75
2023/08/03 00:11:35;;;;;;;5.15;0.57;;;16.60;99.90;;;;;;5035352;28;20442;-75
2023/08/03 00:14:01;;;;;;;5.05;0.57;;;16.50;99.90;;;;;;5035313;28;20093;-75
2023/08/03 00:16:26;;;;;;;5.75;0.10;;;16.50;99.90;;;;;;5035409;28;20029;-75
2023/08/03 00:18:52;;;;;;;3.63;0.10;;;16.60;99.90;;;;;;5035230;28;20132;-75
2023/08/03 00:21:18;;;;;;;5.10;0.13;;;16.60;99.90;;;;;;5035576;28;20032;-75
2023/08/03 00:23:43;;;;;;;4.25;0.20;;;16.60;99.90;;;;;;5035126;28;20029;-75
2023/08/03 00:26:09;;;;;;;1.25;0.03;;;16.60;99.90;;;;;;5033292;28;20025;-75
2023/08/03 00:28:34;;;;;;;4.65;0.20;;;16.60;99.90;;;;;;5034925;28;20029;-75
2023/08/03 00:31:00;;;;;;;2.88;0.30;;;16.50;99.90;;;;;;5035323;28;20020;-75
2023/08/03 00:33:26;;;;;;;2.15;0.63;;;16.60;99.90;;;;;;5035474;28;20025;-75
2023/08/03 00:35:52;;;;;;;4.53;0.20;;;16.70;99.90;;;;;;5033435;28;20044;-75
2023/08/03 00:38:17;;;;;;;3.17;0.20;;;16.60;99.90;;;;;;5034916;28;20030;-75
2023/08/03 00:40:43;;;;;;;3.10;0.32;;;16.70;99.90;;;;;;5034778;28;20028;-75
2023/08/03 00:43:09;;;;;;;3.90;0.40;;;16.70;99.90;;;;;;5033433;28;20116;-75
2023/08/03 00:45:34;;;;;;;3.75;0.40;;;16.70;99.90;;;;;;5033259;28;20150;-75
2023/08/03 00:48:00;;;;;;;8.45;0.47;;;16.70;99.90;;;;;;5034576;28;20045;-75
2023/08/03 00:50:26;;;;;;;4.20;0.65;;;16.70;99.90;;;;;;5033611;28;20091;-75
2023/08/03 00:52:52;;;;;;;5.72;0.40;;;16.70;99.90;;;;;;5034512;28;20021;-75
2023/08/03 00:55:17;;;;;;;5.40;0.35;;;16.70;99.90;;;;;;5034525;28;20036;-75
2023/08/03 00:57:43;;;;;;;2.47;0.00;;;16.70;99.90;;;;;;5034534;28;20472;-75
2023/08/03 01:00:09;;;;;;;2.17;0.22;;;16.70;99.90;;;;;;5034396;28;20060;-75
2023/08/03 01:02:34;;;;;;;7.35;0.20;;;16.70;99.90;;;;;;5034279;28;20079;-75
2023/08/03 01:05:00;;;;;;;7.15;0.55;;;17.00;99.90;;;;;;5032945;28;20108;-75
2023/08/03 01:07:26;;;;;;;2.40;0.43;;;16.70;99.90;;;;;;5034256;28;20033;-75
2023/08/03 01:09:51;;;;;;;2.13;0.15;;;16.70;99.90;;;;;;5034070;28;20083;-75
2023/08/03 01:12:17;;;;;;;4.63;0.30;;;16.70;99.90;;;;;;5034739;28;20057;-75
2023/08/03 01:14:44;;;;;;;4.35;0.20;;;16.70;99.90;;;;;;5033976;28;20033;-75
2023/08/03 01:17:10;;;;;;;3.35;0.00;;;16.70;99.90;;;;;;5032938;28;20112;-75
2023/08/03 01:19:36;;;;;;;2.42;0.00;;;16.70;99.90;;;;;;5032929;28;20457;-75
2023/08/03 01:22:02;;;;;;;7.75;0.20;;;16.70;99.90;;;;;;5033929;28;20048;-75
2023/08/03 01:24:29;;;;;;;7.13;0.00;;;16.80;99.90;;;;;;5033896;28;20025;-75
2023/08/03 01:26:58;;;;;;;3.65;0.57;;;16.70;99.90;;;;;;5032788;28;20419;-75
2023/08/03 01:29:23;;;;;;;;;;;16.80;99.90;;;;;;5034314;28;20037;-75
2023/08/03 01:31:54;;;;;;;1.77;0.22;;;16.80;99.90;;;;;;5033921;28;20019;-75
2023/08/03 01:34:22;;;;;;;4.38;0.57;;;16.80;99.90;;;;;;5032513;28;20366;-75
2023/08/03 01:36:47;;;;;;;3.50;0.10;;;16.80;99.90;;;;;;5033138;28;20028;-75
2023/08/03 01:39:13;;;;;;;3.35;0.57;;;16.80;99.90;;;;;;5032468;28;20025;-75
2023/08/03 01:41:41;;;;;;;2.15;0.20;;;16.90;99.90;;;;;;5033839;28;20492;-75
2023/08/03 01:44:25;;;;;;;3.75;0.15;;;16.90;99.90;;;;;;5033761;28;20021;-75
2023/08/03 01:46:52;;;;;;;1.83;0.30;;;16.80;99.90;;;;;;5033689;28;20021;-75
2023/08/03 01:49:18;;;;;;;3.88;1.08;;;16.80;99.90;;;;;;5032279;28;20022;-75
2023/08/03 01:51:43;;;;;;;3.05;0.17;;;16.80;99.90;;;;;;5033741;28;20013;-75
2023/08/03 01:54:10;;;;;;;4.97;0.45;;;16.80;99.90;;;;;;5033388;28;20436;-75
2023/08/03 01:56:36;;;;;;;3.05;0.20;;;16.80;99.90;;;;;;5033448;28;20105;-75
2023/08/03 01:59:02;;;;;;;7.88;0.77;;;16.70;99.90;;;;;;5033431;28;20492;-75
2023/08/03 02:01:27;;;;;;;1.80;0.73;;;16.70;99.90;;;;;;5032195;28;20025;-75
2023/08/03 02:03:53;;;;;;;6.65;0.95;;;16.70;99.90;;;;;;5033408;28;20404;-74
2023/08/03 02:06:18;;;;;;;1.67;0.35;;;16.70;99.90;;;;;;5033310;28;20072;-75
2023/08/03 02:08:44;;;;;;;2.85;0.32;;;16.70;99.90;;;;;;5033416;28;20040;-75
2023/08/03 02:11:09;;;;;;;7.80;0.60;;;16.70;99.90;;;;;;5033176;28;20032;-75
2023/08/03 02:13:35;;;;;;;8.02;1.35;;;16.70;99.90;;;;;;5033598;28;20087;-75
2023/08/03 02:16:08;;;;;;;6.30;0.73;;;16.70;99.90;;;;;;5033750;28;20461;-75
2023/08/03 02:18:34;;;;;;;3.22;0.70;;;16.70;99.90;;;;;;5033224;28;20039;-75
2023/08/03 02:20:59;;;;;;;3.22;0.10;;;16.70;99.90;;;;;;5033254;28;20104;-75
2023/08/03 02:23:25;;;;;;;9.00;1.00;;;16.80;99.90;;;;;;5033326;28;20017;-75
2023/08/03 02:25:51;;;;;;;4.38;0.52;;;16.70;99.90;;;;;;5031717;28;20022;-75
2023/08/03 02:28:17;;;;;;;4.93;0.22;;;16.70;99.90;;;;;;5033212;28;20029;-75
2023/08/03 02:30:42;;;;;;;8.82;1.15;;;16.70;99.90;;;;;;5033739;28;20039;-75
2023/08/03 02:33:08;;;;;;;3.13;0.40;;;16.70;99.90;;;;;;5031879;28;20028;-75
2023/08/03 02:35:37;;;;;;;5.10;0.20;;;16.60;99.90;;;;;;5033032;28;20028;-75
2023/08/03 02:38:03;;;;;;;3.38;0.65;;;16.60;99.90;;;;;;5032977;28;20036;-75
2023/08/03 02:40:29;;;;;;;6.72;0.65;;;16.60;99.90;;;;;;5033044;28;20029;-75
2023/08/03 02:42:54;;;;;;;3.38;0.45;;;16.60;99.90;;;;;;5031650;28;20545;-75
2023/08/03 02:45:20;;;;;;;6.55;0.93;;;16.60;99.90;;;;;;5033134;28;20116;-75
2023/08/03 02:47:45;;;;;;;5.40;0.30;;;16.60;99.90;;;;;;5033004;28;20098;-75
2023/08/03 02:50:11;;;;;;;7.25;0.50;;;16.60;99.90;;;;;;5036894;28;20033;-74
2023/08/03 02:52:36;;;;;;;3.42;0.68;;;16.60;99.90;;;;;;5036008;28;20017;-76
2023/08/03 02:55:02;;;;;;;16.02;0.82;;;16.60;99.90;;;;;;5036670;28;20031;-75
2023/08/03 02:57:27;;;;;;;5.50;0.85;;;16.60;99.90;;;;;;5036750;28;20383;-75
2023/08/03 02:59:53;;;;;;;4.15;0.38;;;16.60;99.90;;;;;;5036569;28;20090;-75
2023/08/03 03:02:19;;;;;;;2.35;0.10;;;16.70;99.90;;;;;;5036539;28;20105;-74
2023/08/03 03:04:45;;;;;;;4.53;0.10;;;16.70;99.90;;;;;;5036725;28;20033;-75
2023/08/03 03:07:10;;;;;;;5.95;0.52;;;16.70;99.90;;;;;;5036440;28;20036;-75
2023/08/03 03:09:36;;;;;;;4.38;0.82;;;16.60;99.90;;;;;;5036868;28;20095;-75
2023/08/03 03:12:01;;;;;;;6.25;0.20;;;16.70;99.90;;;;;;5037070;28;20037;-75
2023/08/03 03:14:27;;;;;;;3.50;0.20;;;16.70;99.90;;;;;;5036294;28;20484;-74
2023/08/03 03:16:52;;;;;;;7.00;0.28;;;16.70;99.90;;;;;;5036332;28;20053;-75
2023/08/03 03:19:18;;;;;;;4.80;0.05;;;16.70;99.90;;;;;;5036947;28;20031;-75
2023/08/03 03:21:43;;;;;;;3.60;0.50;;;16.60;99.90;;;;;;5034988;28;20057;-75
2023/08/03 03:24:09;;;;;;;3.97;0.03;;;16.70;99.90;;;;;;5036723;28;20037;-75
2023/08/03 03:26:35;;;;;;;7.57;0.05;;;16.70;99.90;;;;;;5036110;28;20400;-75
2023/08/03 03:29:00;;;;;;;1.15;0.15;;;16.70;99.90;;;;;;5036090;28;20029;-75
2023/08/03 03:31:26;;;;;;;4.68;0.45;;;16.60;99.90;;;;;;5036156;28;20056;-75
2023/08/03 03:33:51;;;;;;;3.40;0.20;;;16.60;99.90;;;;;;5035992;28;20029;-75
2023/08/03 03:36:17;;;;;;;1.60;0.20;;;16.70;99.90;;;;;;5036034;28;20384;-75
2023/08/03 03:38:42;;;;;;;2.50;0.32;;;16.60;99.90;;;;;;5034715;28;20017;-75
2023/08/03 03:41:08;;;;;;;2.03;0.60;;;16.50;99.90;;;;;;5036476;28;20022;-75
2023/08/03 03:43:33;;;;;;;6.88;0.40;;;16.50;99.90;;;;;;5036342;28;20021;-75
2023/08/03 03:45:59;;;;;;;2.40;0.22;;;16.50;99.90;;;;;;5035925;28;20021;-75
2023/08/03 03:48:24;;;;;;;5.35;0.35;;;16.50;99.90;;;;;;5034644;28;20057;-75
2023/08/03 03:50:50;;;;;;;6.57;0.45;;;16.50;99.90;;;;;;5034471;28;20370;-75
2023/08/03 03:53:15;;;;;;;4.53;0.80;;;16.50;99.90;;;;;;5035693;28;20510;-75
2023/08/03 03:55:41;;;;;;;4.50;1.00;;;16.50;99.90;;;;;;5034350;28;20037;-75
2023/08/03 03:58:06;;;;;;;2.10;0.45;;;16.50;99.90;;;;;;5036233;28;20026;-75
2023/08/03 04:00:37;;;;;;;7.15;0.70;;;16.50;99.90;;;;;;5034732;28;20041;-75
2023/08/03 04:03:03;;;;;;;3.20;0.80;;;16.50;99.90;;;;;;5034038;28;20105;-75
2023/08/03 04:05:29;;;;;;;3.20;0.10;;;16.50;99.90;;;;;;5035117;28;20033;-75
2023/08/03 04:07:54;;;;;;;1.40;0.20;;;16.50;99.90;;;;;;5034968;28;20032;-75
2023/08/03 04:10:20;;;;;;;2.42;0.15;;;16.50;99.90;;;;;;5034907;28;20025;-75
2023/08/03 04:12:46;;;;;;;1.48;0.15;;;16.50;99.90;;;;;;5034974;28;20074;-75
2023/08/03 04:15:12;;;;;;;1.85;0.20;;;16.50;99.90;;;;;;5034889;28;20104;-75
2023/08/03 04:17:38;;;;;;;1.83;0.40;;;16.40;99.90;;;;;;5035308;28;20029;-75
2023/08/03 04:20:05;;;;;;;2.70;0.65;;;16.50;99.90;;;;;;5035276;28;20030;-75
2023/08/03 04:22:30;;;;;;;1.98;0.20;;;16.50;99.90;;;;;;5035299;28;20045;-75
2023/08/03 04:24:56;;;;;;;9.68;0.52;;;16.60;99.90;;;;;;5035230;28;20025;-75
2023/08/03 04:27:21;;;;;;;0.55;0.10;;;16.50;99.90;;;;;;5033864;28;20044;-75
2023/08/03 04:29:47;;;;;;;5.57;0.45;;;16.50;99.90;;;;;;5035041;28;20022;-75
2023/08/03 04:32:12;;;;;;;3.63;0.52;;;16.30;99.90;;;;;;5033993;28;20053;-75
2023/08/03 04:34:38;;;;;;;2.45;0.00;;;16.50;99.90;;;;;;5035607;28;20376;-75
2023/08/03 04:37:04;;;;;;;4.32;0.00;;;16.50;99.90;;;;;;5034840;28;20014;-75
2023/08/03 04:39:29;;;;;;;3.75;0.03;;;17.30;99.90;;;;;;5034834;28;20025;-75
2023/08/03 04:41:55;;;;;;;0.20;0.00;;;16.50;99.90;;;;;;5033611;28;20022;-74
2023/08/03 04:44:20;;;;;;;2.53;0.00;;;16.50;99.90;;;;;;5035063;28;20112;-74
2023/08/03 04:46:46;;;;;;;3.83;0.15;;;16.50;99.90;;;;;;5035024;28;20071;-76
2023/08/03 04:49:13;;;;;;;2.72;0.08;;;16.50;99.90;;;;;;5035033;28;20101;-76
2023/08/03 04:51:39;;;;;;;7.38;0.65;;;16.50;99.90;;;;;;5035044;28;20149;-76
2023/08/03 04:54:04;;;;;;;2.63;0.00;;;16.50;99.90;;;;;;5035021;28;20068;-76
2023/08/03 04:56:30;;;;;;;3.85;0.68;;;16.50;99.90;;;;;;5034964;28;20385;-76
2023/08/03 04:58:55;;;;;;;3.92;0.13;;;16.50;99.90;;;;;;5034934;28;20091;-76
2023/08/03 05:01:21;;;;;;;2.53;0.40;;;16.60;99.90;;;;;;5035420;28;20072;-76
2023/08/03 05:03:46;;;;;;;9.80;0.40;;;16.60;99.90;;;;;;5034466;28;20415;-76
2023/08/03 05:06:12;;;;;;;5.00;0.22;;;16.50;99.90;;;;;;5034301;28;20034;-76
2023/08/03 05:08:37;;;;;;;6.40;0.45;;;16.50;99.90;;;;;;5034340;28;20053;-76
2023/08/03 05:11:03;;;;;;;7.55;1.05;;;16.50;99.90;;;;;;5033738;28;20079;-76
2023/08/03 05:13:28;;;;;;;8.57;0.82;;;16.60;99.90;;;;;;5032327;28;20427;-76
2023/08/03 05:15:54;;;;;;;6.78;0.38;;;16.50;99.90;;;;;;5034448;28;20078;-76
2023/08/03 05:18:19;;;;;;;5.68;0.25;;;16.50;99.90;;;;;;5033526;28;20078;-76
2023/08/03 05:20:45;;;;;;;5.32;0.20;;;16.50;99.90;;;;;;5034216;28;20064;-76
2023/08/03 05:23:12;;;;;;;3.30;0.00;;;16.50;99.90;;;;;;5034092;28;20033;-76
2023/08/03 05:25:38;;;;;;;6.47;0.22;;;16.50;99.90;;;;;;5034163;28;20029;-76
2023/08/03 05:28:04;;;;;;;7.55;0.75;;;16.50;99.90;;;;;;5034051;28;20017;-76
2023/08/03 05:30:29;;;;;;;4.35;0.30;;;16.50;99.90;;;;;;5034157;28;20461;-76
2023/08/03 05:32:55;;;;;;;5.00;0.32;;;16.50;99.90;;;;;;5033873;28;20032;-76
2023/08/03 05:35:20;;;;;;;10.00;1.77;;;16.50;99.90;;;;;;5033764;28;20032;-76
2023/08/03 05:37:46;;;;;;;7.05;0.17;;;16.50;99.90;;;;;;5034020;28;20009;-76
2023/08/03 05:40:12;;;;;;;6.20;0.38;;;16.50;99.90;;;;;;5034440;28;20026;-76
2023/08/03 05:42:40;;;;;;;9.45;0.82;;;16.50;99.90;;;;;;5033741;28;20136;-76
2023/08/03 05:45:33;;;;;;;7.90;0.82;;;16.60;99.90;;;;;;5033659;28;20029;-76
2023/08/03 05:47:59;;;;;;;10.45;0.73;;;16.50;99.90;;;;;;5034179;28;20079;-76
2023/08/03 05:50:24;;;;;;;5.13;0.47;;;16.60;99.90;;;;;;5032351;28;20026;-76
2023/08/03 05:52:50;;;;;;;4.88;0.20;;;16.50;99.90;;;;;;5032214;28;20112;-76
2023/08/03 05:55:16;;;;;;;6.45;0.40;;;16.50;99.90;;;;;;5033750;28;20020;-76
2023/08/03 05:57:42;;;;;;;9.02;0.32;;;16.50;99.90;;;;;;5033837;28;20500;-76
2023/08/03 06:00:16;;;;;;;11.20;1.02;;;16.50;99.90;;;;;;5033687;28;20120;-76
2023/08/03 06:02:44;;;;;;;7.75;0.25;;;16.50;99.90;;;;;;5033962;28;20392;-76
2023/08/03 06:05:40;;;;;;;10.90;0.30;;;16.50;99.90;;;;;;5033662;28;20022;-76
2023/08/03 06:08:15;;;;;;;3.80;0.10;;;16.60;99.90;;;;;;5033861;28;20021;-76
2023/08/03 06:10:41;;;;;;;6.05;0.35;;;16.60;99.90;;;;;;5033692;28;20030;-76
2023/08/03 06:13:10;;;;;;;6.38;0.57;;;16.60;99.90;;;;;;5031923;28;20356;-76
2023/08/03 06:15:36;;;;;;;5.78;0.40;;;16.60;99.90;;;;;;5033581;28;20025;-76
2023/08/03 06:18:07;;;;;;;4.18;0.40;;;16.60;99.90;;;;;;5033314;28;20024;-76
2023/08/03 06:20:34;;;;;;;9.60;0.50;;;16.60;99.90;;;;;;5033223;28;20416;-76
2023/08/03 06:23:00;;;;;;;4.88;0.20;;;16.60;99.90;;;;;;5031996;28;20036;-76
2023/08/03 06:25:27;;;;;;;8.25;0.28;;;16.60;99.90;;;;;;5033438;28;20393;-76
2023/08/03 06:27:52;;;;;;;3.63;0.03;;;16.60;99.90;;;;;;5032887;28;20045;-75
2023/08/03 06:30:18;;;;;;;5.28;0.50;;;16.70;99.90;;;;;;5033308;28;20057;-76
2023/08/03 06:32:44;;;;;;;8.48;1.15;;;16.80;99.90;;;;;;5032103;28;20022;-76
2023/08/03 06:35:36;;;;;;;4.45;0.70;;;16.80;99.90;;;;;;5033942;28;20025;-76
2023/08/03 06:38:02;;;;;;;3.42;0.32;;;16.90;99.90;;;;;;5031724;28;20029;-76
2023/08/03 06:40:28;;;;;;;3.30;0.10;;;16.90;99.90;;;;;;5033276;28;20053;-76
2023/08/03 06:42:54;;;;;;;7.55;0.22;;;17.00;99.90;;;;;;5031927;28;20064;-76
2023/08/03 06:45:19;;;;;;;1.92;0.10;;;17.00;99.90;;;;;;5032964;28;20049;-76
2023/08/03 06:47:45;;;;;;;2.83;0.32;;;17.00;99.90;;;;;;5031653;28;20044;-76
2023/08/03 06:50:11;;;;;;;4.20;0.25;;;16.90;99.90;;;;;;5033041;28;20022;-76
2023/08/03 06:52:36;;;;;;;3.35;0.20;;;16.90;99.90;;;;;;5031947;28;20071;-76
2023/08/03 06:55:02;;;;;;;6.90;0.32;;;16.90;99.90;;;;;;5032996;28;20032;-76
2023/08/03 06:57:28;;;;;;;2.00;0.10;;;16.90;99.90;;;;;;5032765;28;20014;-76
2023/08/03 06:59:56;;;;;;;6.40;0.55;;;16.90;99.90;;;;;;5033077;28;20045;-76
2023/08/03 07:02:22;;;;;;;3.20;0.10;;;16.90;99.90;;;;;;5033077;28;20396;-76
2023/08/03 07:04:48;;;;;;;5.43;0.65;;;17.00;99.90;;;;;;5033028;28;20025;-76
2023/08/03 07:07:16;;;;;;;3.08;0.22;;;17.00;99.90;;;;;;5031890;28;20443;-76
2023/08/03 07:09:48;;;;;;;6.85;0.52;;;17.00;99.90;;;;;;5031474;28;20025;-76
2023/08/03 07:12:14;;;;;;;7.75;0.55;;;16.90;99.90;;;;;;5031557;28;20048;-76
2023/08/03 07:14:39;;;;;;;5.75;0.45;;;16.90;99.90;;;;;;5033046;28;20496;-76
2023/08/03 07:17:05;;;;;;;5.35;0.35;;;16.90;99.90;;;;;;5031764;28;20025;-76
2023/08/03 07:19:31;;;;;;;5.10;0.57;;;17.00;99.90;;;;;;5031691;28;20037;-76
2023/08/03 07:21:56;;;;;;;6.57;0.10;;;17.30;99.90;;;;;;5033018;28;20076;-76
2023/08/03 07:24:22;;;;;;;8.60;0.73;;;17.10;99.90;;;;;;5032754;28;20105;-76
2023/08/03 07:26:49;;;;;;;5.13;0.20;;;17.20;99.90;;;;;;5032938;28;20050;-76
2023/08/03 07:29:14;;;;;;;3.60;0.30;;;17.30;99.90;;;;;;5033575;28;20431;-76
2023/08/03 07:31:40;;;;;;;6.53;0.52;;;17.50;99.90;;;;;;5032824;28;20060;-76
2023/08/03 07:34:06;;;;;;;7.93;0.15;;;17.60;99.90;;;;;;5031564;28;20075;-76
2023/08/03 07:36:31;;;;;;;3.30;0.03;;;17.90;99.90;;;;;;5035697;28;20064;-76
2023/08/03 07:38:57;;;;;;;4.13;0.70;;;18.00;99.90;;;;;;5036487;28;20029;-76
2023/08/03 07:41:22;;;;;;;6.43;1.05;;;18.20;99.90;;;;;;5035119;28;20018;-76
2023/08/03 07:43:49;;;;;;;5.40;0.00;;;18.30;99.90;;;;;;5036236;28;20083;-76
2023/08/03 07:46:15;;;;;;;4.63;0.30;;;18.50;99.90;;;;;;5036462;28;20021;-76
2023/08/03 07:48:41;;;;;;;4.75;0.30;;;18.60;99.90;;;;;;5036808;28;20017;-75
2023/08/03 07:51:17;;;;;;;2.97;0.10;;;18.70;99.90;;;;;;5036300;28;20025;-76
2023/08/03 07:53:43;;;;;;;1.52;0.22;;;18.80;99.90;;;;;;5036237;28;20109;-76
2023/08/03 07:56:22;;;;;;;1.27;0.10;;;18.80;99.90;;;;;;5036362;28;20163;-76
2023/08/03 07:58:49;;;;;;;5.95;0.63;;;18.90;99.90;;;;;;5035239;28;20021;-75
2023/08/03 08:01:16;;;;;;;1.67;0.30;;;19.00;99.90;;;;;;5036063;28;20396;-75
2023/08/03 08:03:42;;;;;;;3.97;0.30;;;19.00;99.90;;;;;;5034507;28;20022;-76
2023/08/03 08:06:09;;;;;;;6.00;0.25;;;19.20;99.90;;;;;;5035937;28;20032;-76
2023/08/03 08:08:34;;;;;;;12.20;0.40;;;19.20;99.90;;;;;;5036067;28;20029;-76
2023/08/03 08:11:00;;;;;;;2.55;0.20;;;19.40;99.90;;;;;;5035491;28;20445;-76
2023/08/03 08:13:26;;;;;;;4.13;0.40;;;19.50;99.90;;;;;;5035983;28;20104;-76
2023/08/03 08:15:56;;;;;;;5.93;0.63;;;19.50;99.90;;;;;;5035903;28;20041;-76
2023/08/03 08:18:22;;;;;;;5.07;0.30;;;19.60;99.90;;;;;;5035531;28;20399;-76
2023/08/03 08:20:54;;;;;;;6.78;0.00;;;19.50;99.90;;;;;;5035830;28;20029;-76
2023/08/03 08:23:20;;;;;;;4.05;0.15;;;19.50;99.90;;;;;;5035545;28;20025;-76
2023/08/03 08:25:46;;;;;;;1.98;0.00;;;19.50;99.90;;;;;;5035194;28;20386;-76
2023/08/03 08:28:11;;;;;;;5.35;0.35;;;19.60;99.90;;;;;;5035655;28;20022;-76
2023/08/03 08:30:37;;;;;;;1.48;0.10;;;19.70;99.90;;;;;;5035764;28;20175;-77
2023/08/03 08:33:03;;;;;;;3.58;0.40;;;19.80;99.90;;;;;;5036231;28;20033;-76
2023/08/03 08:35:28;;;;;;;8.00;1.02;;;19.90;99.90;;;;;;5035345;28;20017;-76
2023/08/03 08:37:54;;;;;;;5.10;0.28;;;20.00;99.90;;;;;;5034045;28;20205;-75
2023/08/03 08:40:19;;;;;;;3.90;0.45;;;20.30;99.90;;;;;;5035110;28;20021;-76
2023/08/03 08:42:52;;;;;;;6.13;1.10;;;20.60;99.90;;;;;;5034999;28;20037;-75
2023/08/03 08:45:18;;;;;;;2.92;0.28;;;20.80;99.90;;;;;;5034996;28;20021;-76
2023/08/03 08:47:43;;;;;;;4.00;0.57;;;20.70;99.90;;;;;;5033640;28;20443;-76
2023/08/03 08:50:09;;;;;;;1.60;0.47;;;20.50;99.90;;;;;;5034946;28;20564;-75
2023/08/03 08:52:36;;;;;;;2.25;0.10;;;20.30;99.90;;;;;;5033960;28;20531;-75
2023/08/03 08:55:12;;;;;;;1.75;0.28;;;20.00;99.90;;;;;;5035548;28;20029;-76
2023/08/03 08:57:39;;;;;;;5.28;0.32;;;19.80;99.90;;;;;;5035467;28;20076;-77
2023/08/03 09:00:07;;;;;;;4.97;0.32;;;19.70;99.90;;;;;;5033710;28;20040;-76
2023/08/03 09:02:35;;;;;;;1.40;0.00;;;19.80;99.90;;;;;;5034800;28;20068;-76
2023/08/03 09:05:18;;;;;;;2.03;0.25;;;19.90;99.90;;;;;;5035170;28;20025;-76
2023/08/03 09:07:44;;;;;;;1.75;0.00;;;20.00;99.90;;;;;;5033618;28;20079;-77
2023/08/03 09:10:11;;;;;;;1.25;0.38;;;20.10;99.90;;;;;;5033744;28;20427;-76
2023/08/03 09:12:38;;;;;;;6.05;0.55;;;20.30;99.90;;;;;;5035227;28;20025;-76
2023/08/03 09:15:04;;;;;;;1.90;0.13;;;20.40;99.90;;;;;;5034745;28;20426;-77
2023/08/03 09:17:30;;;;;;;1.02;0.00;;;20.60;99.90;;;;;;5034332;28;20064;-78
2023/08/03 09:19:56;;;;;;;4.05;0.08;;;21.00;99.90;;;;;;5033860;28;20029;-77
2023/08/03 09:22:24;;;;;;;7.32;0.10;;;21.10;99.90;;;;;;5034691;28;20099;-77
2023/08/03 09:25:07;;;;;;;2.70;0.32;;;21.50;99.90;;;;;;5034595;28;20361;-76
2023/08/03 09:27:33;;;;;;;2.53;0.10;;;21.70;99.90;;;;;;5035331;28;20029;-75
2023/08/03 09:30:04;;;;;;;0.47;0.20;;;21.90;99.90;;;;;;5033483;28;20558;-76
2023/08/03 09:32:34;;;;;;;6.18;0.43;;;21.90;99.90;;;;;;5034492;28;20030;-78
2023/08/03 09:35:00;;;;;;;5.00;0.43;;;21.70;99.90;;;;;;5034449;28;20049;-78
2023/08/03 09:37:36;;;;;;;1.60;0.10;;;21.30;99.90;;;;;;5035012;28;20033;-76
2023/08/03 09:40:05;;;;;;;0.95;0.00;;;21.00;99.90;;;;;;5033746;28;20025;-78
2023/08/03 09:42:32;;;;;;;1.52;0.38;;;20.70;99.90;;;;;;5033598;28;20025;-78
2023/08/03 09:45:03;;;;;;;3.53;0.22;;;20.60;99.90;;;;;;5034975;28;20021;-77
2023/08/03 09:47:34;;;;;;;0.85;0.00;;;20.50;99.90;;;;;;5034858;28;20029;-77
2023/08/03 09:50:00;;;;;;;2.05;0.10;;;20.60;99.90;;;;;;5033250;28;20088;-78
2023/08/03 09:52:28;;;;;;;6.50;0.68;;;20.80;99.90;;;;;;5033239;28;20365;-78
2023/08/03 09:55:18;;;;;;;3.17;0.30;;;21.10;99.90;;;;;;5035036;28;20100;-77
2023/08/03 09:57:51;;;;;;;3.22;0.00;;;21.50;99.90;;;;;;5034429;28;20053;-77
2023/08/03 10:00:18;;;;;;;2.50;0.20;;;21.60;99.90;;;;;;5034677;28;20037;-75
2023/08/03 10:03:03;;;;;;;2.70;0.00;;;21.90;99.90;;;;;;5032888;28;20099;-77
2023/08/03 10:05:32;;;;;;;1.23;0.20;;;22.20;99.90;;;;;;5034747;28;20045;-78
2023/08/03 10:07:58;;;;;;;8.30;0.40;;;22.10;99.90;;;;;;5033391;28;20083;-77
2023/08/03 10:10:26;;;;;;;2.75;0.30;;;21.80;99.90;;;;;;5034196;28;20481;-76
2023/08/03 10:12:58;;;;;;;3.67;0.70;;;21.70;99.90;;;;;;5032678;28;20105;-78
2023/08/03 10:15:25;;;;;;;2.85;0.20;;;21.50;99.90;;;;;;5034587;28;20080;-77
2023/08/03 10:17:52;;;;;;;0.95;0.20;;;21.20;99.90;;;;;;5033027;28;20030;-76
2023/08/03 10:20:19;;;;;;;2.55;0.00;;;21.00;99.90;;;;;;5032824;28;20037;-76
2023/08/03 10:23:21;;;;;;;3.15;0.15;;;21.10;99.90;;;;;;5032635;28;20069;-76
2023/08/03 10:25:52;;;;;;;5.22;0.20;;;21.30;99.90;;;;;;5012481;28;20030;-77
2023/08/03 10:28:17;;;;;;;4.88;0.40;;;21.50;99.90;;;;;;5029448;28;20034;-77
2023/08/03 10:31:10;;;;;;;1.98;0.15;;;21.80;99.90;;;;;;5032600;28;20396;-77
2023/08/03 10:34:02;;;;;;;2.63;0.28;;;22.00;99.90;;;;;;5033905;28;20044;-76
2023/08/03 10:36:34;;;;;;;0.85;0.13;;;22.20;99.90;;;;;;5030624;28;20030;-75
2023/08/03 10:39:09;;;;;;;2.30;0.08;;;22.10;99.90;;;;;;5032514;28;20032;-78
2023/08/03 10:41:40;;;;;;;0.98;0.00;;;22.10;99.90;;;;;;5034127;28;20030;-76
2023/08/03 10:44:06;;;;;;;1.00;0.00;;;21.90;99.90;;;;;;5034220;28;20366;-77
2023/08/03 10:46:43;;;;;;;1.67;0.00;;;22.00;99.90;;;;;;5032968;28;20139;-76
2023/08/03 10:49:21;;;;;;;4.47;0.52;;;22.10;99.90;;;;;;5033227;28;20370;-76
2023/08/03 10:51:51;;;;;;;;;;;22.20;99.90;;;;;;5034096;28;20075;-77
2023/08/03 10:54:35;;;;;;;6.40;0.25;;;22.00;99.90;;;;;;5033671;28;19905;-76
2023/08/03 10:57:08;;;;;;;2.03;0.10;;;21.80;99.90;;;;;;5032565;28;20460;-76
2023/08/03 10:59:37;;;;;;;1.15;0.22;;;21.40;99.90;;;;;;5032194;28;20151;-77
2023/08/03 11:02:26;;;;;;;4.22;0.25;;;21.20;99.90;;;;;;5034052;28;20036;-78
2023/08/03 11:04:52;;;;;;;;;;;21.10;99.90;;;;;;5034229;28;20029;-77
2023/08/03 11:07:42;;;;;;;3.40;0.20;;;20.90;99.90;;;;;;5032155;28;19940;-78
2023/08/03 11:10:11;;;;;;;2.90;0.05;;;20.70;99.90;;;;;;5032814;28;20037;-77
2023/08/03 11:12:37;;;;;;;;;;;20.60;99.90;;;;;;5038055;28;20021;-77
2023/08/03 11:15:05;;;;;;;2.78;0.40;;;20.60;99.90;;;;;;5037581;28;19981;-78
2023/08/03 11:17:35;;;;;;;1.53;0.00;;;21.00;99.90;;;;;;5037111;28;20014;-77
2023/08/03 11:20:03;;;;;;;3.67;0.13;;;21.40;99.90;;;;;;5037650;28;20036;-76
2023/08/03 11:22:30;;;;;;;2.67;0.00;;;21.50;99.90;;;;;;5037653;28;20053;-77
2023/08/03 11:24:57;;;;;;;2.28;0.50;;;22.30;99.90;;;;;;5035779;28;20472;-78
2023/08/03 11:27:23;;;;;;;2.28;0.00;;;21.20;99.90;;;;;;5037236;28;20048;-76
2023/08/03 11:29:50;;;;;;;0.47;0.00;;;20.90;99.90;;;;;;5037074;28;20441;-78
2023/08/03 11:32:25;;;;;;;1.42;0.10;;;20.60;99.90;;;;;;5036056;28;20025;-76
2023/08/03 11:35:00;;;;;;;1.48;0.00;;;20.50;99.90;;;;;;5037055;28;20431;-76
2023/08/03 11:37:30;;;;;;;1.33;0.20;;;20.60;99.90;;;;;;5037065;28;20026;-78
2023/08/03 11:39:56;;;;;;;3.28;0.00;;;20.90;99.90;;;;;;5037124;28;20132;-78
2023/08/03 11:42:22;;;;;;;0.30;0.00;;;21.10;99.90;;;;;;5037669;28;20030;-77
2023/08/03 11:44:47;;;;;;;1.88;0.00;;;21.30;99.90;;;;;;5037086;28;20484;-77
2023/08/03 11:47:13;;;;;;;1.85;0.00;;;21.40;99.90;;;;;;5037791;28;20033;-78
2023/08/03 11:49:38;;;;;;;1.27;0.13;;;21.30;99.90;;;;;;5037644;28;20021;-78
2023/08/03 11:52:04;;;;;;;1.35;0.00;;;21.10;99.90;;;;;;5037310;28;20026;-77
2023/08/03 11:54:32;;;;;;;4.90;0.10;;;20.90;99.90;;;;;;5037202;28;20018;-76
2023/08/03 11:59:46;;;;;;;2.05;0.10;;;20.50;99.90;;;;;;5036919;28;20072;-78
2023/08/03 12:02:11;;;;;;;3.67;0.20;;;20.60;99.90;;;;;;5036813;28;20026;-78
2023/08/03 12:04:37;;;;;;;2.25;0.22;;;20.80;99.90;;;;;;5036390;28;20381;-76
2023/08/03 12:07:04;;;;;;;5.07;0.47;;;21.20;99.90;;;;;;5036618;28;20033;-77
2023/08/03 12:09:38;;;;;;;2.88;0.20;;;21.50;99.90;;;;;;5034839;28;20029;-76
2023/08/03 12:12:06;;;;;;;3.83;0.25;;;21.60;99.90;;;;;;5035057;28;20452;-76
2023/08/03 12:14:32;;;;;;;5.27;0.10;;;21.70;99.90;;;;;;5036551;28;20029;-76
2023/08/03 12:16:57;;;;;;;6.88;0.43;;;21.70;99.90;;;;;;5035985;28;20029;-77
2023/08/03 12:19:23;;;;;;;2.53;0.13;;;21.80;99.90;;;;;;5034493;28;20024;-77
2023/08/03 12:21:48;;;;;;;3.10;0.17;;;21.70;99.90;;;;;;5033988;28;20026;-78
2023/08/03 12:24:14;;;;;;;4.72;0.25;;;21.60;99.90;;;;;;5036517;28;20040;-77
2023/08/03 12:26:40;;;;;;;4.03;0.25;;;21.50;99.90;;;;;;5036224;28;20028;-77
2023/08/03 12:29:06;;;;;;;4.20;0.20;;;21.40;99.90;;;;;;5035961;28;20500;-76
2023/08/03 12:31:32;;;;;;;5.32;0.32;;;21.50;99.90;;;;;;5036635;28;20021;-77
2023/08/03 12:33:58;;;;;;;2.40;0.10;;;21.70;99.90;;;;;;5036360;28;20017;-78
2023/08/03 12:36:25;;;;;;;5.40;0.43;;;21.90;99.90;;;;;;5035084;28;20504;-76
2023/08/03 12:38:52;;;;;;;4.85;0.85;;;22.10;99.90;;;;;;5036114;28;20045;-76
2023/08/03 12:41:19;;;;;;;3.70;0.75;;;22.00;99.90;;;;;;5034483;28;20021;-78
2023/08/03 12:43:47;;;;;;;1.30;0.22;;;21.80;99.90;;;;;;5034802;28;20464;-77
2023/08/03 12:46:13;;;;;;;5.00;0.57;;;21.60;99.90;;;;;;5035622;28;20392;-77
2023/08/03 12:48:39;;;;;;;5.13;0.50;;;21.40;99.90;;;;;;5036068;28;20025;-77
2023/08/03 12:51:04;;;;;;;2.45;0.10;;;21.30;99.90;;;;;;5035649;28;20029;-76
2023/08/03 12:53:31;;;;;;;1.67;0.45;;;21.40;99.90;;;;;;5035626;28;20021;-77